Time;durP1;ratioP1;P1;durP2;ratioP2;P2;SDS_P1;SDS_P2;PMS_P1;PMS_P2;Temp;Humidity;BMP_temperature;BMP_pressure;BME280_temperature;BME280_humidity;BME280_pressure;Samples;Min_cycle;Max_cycle;Signal;HPM_P1;HPM_P2
2021/12/29 00:01:29;;;;;;;10.55;4.00;;;;;;;8.04;100.00;100175.81;4990272;28;20051;-68
2021/12/29 00:04:03;;;;;;;14.43;4.63;;;;;;;7.97;100.00;100183.09;4962894;28;20206;-69
2021/12/29 00:06:34;;;;;;;14.98;4.60;;;;;;;7.99;100.00;100188.38;4989233;28;20065;-69
2021/12/29 00:09:05;;;;;;;12.75;4.82;;;;;;;7.96;100.00;100191.13;4972642;28;20148;-69
2021/12/29 00:11:37;;;;;;;14.68;4.78;;;;;;;7.95;100.00;100189.38;4971671;28;20068;-73
2021/12/29 00:14:06;;;;;;;11.25;4.90;;;;;;;7.99;100.00;100186.56;4990562;28;20057;-73
2021/12/29 00:16:35;;;;;;;11.15;4.30;;;;;;;7.96;100.00;100199.97;4991002;28;20129;-74
2021/12/29 00:19:23;;;;;;;12.23;4.80;;;;;;;7.96;100.00;100204.41;4988919;28;20500;-73
2021/12/29 00:21:52;;;;;;;12.60;4.30;;;;;;;7.96;100.00;100215.03;4990957;28;20145;-74
2021/12/29 00:24:20;;;;;;;11.13;4.22;;;;;;;7.97;100.00;100215.00;4988268;28;20134;-74
2021/12/29 00:26:48;;;;;;;10.13;3.80;;;;;;;7.93;100.00;100221.31;4988173;28;20053;-73
2021/12/29 00:29:16;;;;;;;10.48;4.28;;;;;;;7.90;100.00;100223.19;4987435;28;20065;-73
2021/12/29 00:31:44;;;;;;;16.40;4.22;;;;;;;7.91;100.00;100227.59;4988791;28;20054;-74
2021/12/29 00:34:12;;;;;;;9.23;3.60;;;;;;;7.92;100.00;100224.03;4987580;28;20062;-73
2021/12/29 00:36:40;;;;;;;10.15;3.55;;;;;;;7.92;100.00;100221.38;4990197;28;20089;-73
2021/12/29 00:39:09;;;;;;;11.23;4.80;;;;;;;7.89;100.00;100232.94;4989262;28;20089;-73
2021/12/29 00:41:37;;;;;;;10.70;3.67;;;;;;;7.94;100.00;100240.78;4988741;28;20502;-73
2021/12/29 00:44:07;;;;;;;11.82;3.40;;;;;;;7.96;100.00;100226.53;4992133;28;20061;-73
2021/12/29 00:46:37;;;;;;;10.57;3.67;;;;;;;7.94;100.00;100240.78;4990195;28;20075;-73
2021/12/29 00:49:08;;;;;;;11.80;3.92;;;;;;;7.92;100.00;100238.19;4991295;28;20141;-73
2021/12/29 00:51:36;;;;;;;12.77;3.45;;;;;;;7.91;100.00;100244.38;4990678;28;20478;-73
2021/12/29 00:54:04;;;;;;;12.98;3.85;;;;;;;7.92;100.00;100243.50;4991784;28;20526;-73
2021/12/29 00:56:33;;;;;;;10.75;3.75;;;;;;;7.91;100.00;100248.84;4990943;28;20056;-73
2021/12/29 00:59:01;;;;;;;10.98;3.30;;;;;;;7.91;100.00;100259.47;4992676;28;20057;-72
2021/12/29 01:01:30;;;;;;;13.77;4.03;;;;;;;7.83;100.00;100257.91;4991943;28;20054;-72
2021/12/29 01:04:03;;;;;;;11.57;4.25;;;;;;;7.88;100.00;100275.50;4994268;28;20483;-72
2021/12/29 01:06:31;;;;;;;10.82;4.10;;;;;;;7.93;100.00;100270.91;4990497;28;20078;-72
2021/12/29 01:08:59;;;;;;;8.85;3.85;;;;;;;7.92;100.00;100285.13;4995063;28;20050;-72
2021/12/29 01:11:30;;;;;;;12.10;4.20;;;;;;;7.90;100.00;100302.88;4993227;28;20060;-73
2021/12/29 01:14:00;;;;;;;13.70;3.65;;;;;;;7.89;100.00;100317.09;4993868;28;20101;-72
2021/12/29 01:16:37;;;;;;;13.40;3.60;;;;;;;7.90;100.00;100308.19;4992123;28;20058;-72
2021/12/29 01:19:10;;;;;;;15.38;4.32;;;;;;;7.85;100.00;100306.56;4994970;28;20113;-72
2021/12/29 01:21:40;;;;;;;15.33;3.70;;;;;;;7.85;100.00;100316.31;4991781;28;20491;-72
2021/12/29 01:24:10;;;;;;;6.90;2.95;;;;;;;7.85;100.00;100321.63;4993362;28;20081;-72
2021/12/29 01:26:42;;;;;;;9.07;3.72;;;;;;;7.82;100.00;100317.25;4992160;28;20157;-73
2021/12/29 01:29:12;;;;;;;10.57;3.45;;;;;;;7.83;100.00;100324.31;4992329;28;20050;-75
2021/12/29 01:31:40;;;;;;;8.98;3.50;;;;;;;7.84;100.00;100338.47;4993667;28;20513;-72
2021/12/29 01:34:08;;;;;;;11.65;3.70;;;;;;;7.83;100.00;100342.91;4991518;28;20089;-74
2021/12/29 01:36:39;;;;;;;12.70;3.15;;;;;;;7.80;100.00;100345.66;4994267;28;20062;-74
2021/12/29 01:39:09;;;;;;;9.57;3.25;;;;;;;7.81;100.00;100350.03;4993019;28;20466;-74
2021/12/29 01:41:38;;;;;;;6.55;3.15;;;;;;;7.80;100.00;100347.44;4996300;28;20049;-74
2021/12/29 01:44:08;;;;;;;6.55;3.03;;;;;;;7.83;100.00;100347.34;4993923;28;20050;-76
2021/12/29 01:46:38;;;;;;;11.25;2.55;;;;;;;7.85;100.00;100361.47;4995260;28;20469;-74
2021/12/29 01:49:07;;;;;;;9.57;3.13;;;;;;;7.80;100.00;100364.25;4991730;28;20053;-75
2021/12/29 01:51:36;;;;;;;11.65;3.40;;;;;;;7.81;100.00;100355.34;4992768;28;20066;-74
2021/12/29 01:54:15;;;;;;;13.40;3.70;;;;;;;7.81;100.00;100360.66;4987697;28;20549;-73
2021/12/29 01:56:46;;;;;;;7.28;3.67;;;;;;;7.79;100.00;100359.84;4992532;28;20061;-74
2021/12/29 01:59:15;;;;;;;11.30;4.05;;;;;;;7.85;100.00;100366.78;4992155;28;20049;-74
2021/12/29 02:01:45;;;;;;;18.30;5.25;;;;;;;7.83;100.00;100360.63;4993210;28;20424;-74
2021/12/29 02:04:13;;;;;;;15.32;4.88;;;;;;;7.80;100.00;100361.59;4989841;28;20077;-74
2021/12/29 02:06:41;;;;;;;14.38;5.20;;;;;;;7.82;100.00;100385.47;4992424;28;20077;-75
2021/12/29 02:09:10;;;;;;;14.13;4.80;;;;;;;7.84;100.00;100386.28;4995711;28;20061;-75
2021/12/29 02:11:41;;;;;;;13.77;5.70;;;;;;;7.81;100.00;100378.41;4993858;28;20065;-74
2021/12/29 02:14:10;;;;;;;17.42;5.82;;;;;;;7.78;100.00;100384.69;4991487;28;20058;-74
2021/12/29 02:16:39;;;;;;;14.02;5.80;;;;;;;7.80;100.00;100392.63;4989513;28;20062;-74
2021/12/29 02:19:42;;;;;;;14.40;5.13;;;;;;;7.81;100.00;100389.03;4992012;28;20046;-69
2021/12/29 02:22:33;;;;;;;17.67;6.78;;;;;;;7.80;100.00;100382.84;4991355;28;20066;-70
2021/12/29 02:30:50;;;;;;;13.50;5.85;;;;;;;7.78;100.00;100384.69;4995309;28;20060;-74
2021/12/29 02:33:20;;;;;;;14.68;6.25;;;;;;;7.76;100.00;100389.13;4992936;28;20081;-69
2021/12/29 02:35:52;;;;;;;19.20;6.90;;;;;;;7.75;100.00;100389.22;4991280;28;20062;-68
2021/12/29 02:38:28;;;;;;;16.63;6.55;;;;;;;7.75;100.00;100398.03;4974164;28;20066;-69
2021/12/29 02:41:03;;;;;;;17.42;6.47;;;;;;;7.73;100.00;100401.63;4988014;28;20050;-69
2021/12/29 02:43:40;;;;;;;16.13;6.75;;;;;;;7.75;100.00;100399.84;4978104;28;20172;-68
2021/12/29 02:46:14;;;;;;;19.67;7.28;;;;;;;7.75;100.00;100416.63;4993955;28;20062;-68
2021/12/29 02:48:54;;;;;;;16.75;6.30;;;;;;;7.72;100.00;100416.72;4973184;28;20056;-68
2021/12/29 02:51:25;;;;;;;17.13;6.25;;;;;;;7.72;100.00;100434.44;4979429;28;20481;-68
2021/12/29 02:53:55;;;;;;;17.35;6.30;;;;;;;7.75;100.00;100434.38;4990643;28;20153;-68
2021/12/29 02:56:23;;;;;;;17.55;6.35;;;;;;;7.70;100.00;100433.63;4990835;28;20062;-68
2021/12/29 02:58:51;;;;;;;15.20;6.57;;;;;;;7.69;100.00;100439.81;4987323;28;20125;-69
2021/12/29 03:01:20;;;;;;;17.73;6.97;;;;;;;7.67;100.00;100447.81;4991990;28;20444;-70
2021/12/29 03:03:48;;;;;;;19.67;6.32;;;;;;;7.66;100.00;100454.94;4989022;28;20054;-73
2021/12/29 03:06:16;;;;;;;21.13;6.03;;;;;;;7.66;100.00;100454.94;4991456;28;20495;-72
2021/12/29 03:08:45;;;;;;;13.65;5.63;;;;;;;7.67;100.00;100466.41;4989716;28;20054;-68
2021/12/29 03:11:15;;;;;;;15.20;5.82;;;;;;;7.69;100.00;100472.56;4991609;28;20054;-68
2021/12/29 03:13:43;;;;;;;24.55;6.07;;;;;;;7.65;100.00;100468.25;4991157;28;20041;-68
2021/12/29 03:16:12;;;;;;;24.50;6.85;;;;;;;7.67;100.00;100477.91;4992743;28;20108;-69
2021/12/29 03:18:40;;;;;;;16.48;5.82;;;;;;;7.66;100.00;100478.84;4975209;28;20394;-69
2021/12/29 03:21:10;;;;;;;16.10;6.20;;;;;;;7.65;100.00;100481.53;4989584;28;20058;-74
2021/12/29 03:23:38;;;;;;;16.20;5.22;;;;;;;7.67;100.00;100482.34;4991701;28;20299;-73
2021/12/29 03:26:07;;;;;;;13.82;5.28;;;;;;;7.64;100.00;100485.06;4989173;28;20129;-73
2021/12/29 03:28:38;;;;;;;20.33;6.05;;;;;;;7.61;100.00;100483.41;4988474;28;20407;-73
2021/12/29 03:31:10;;;;;;;13.52;5.25;;;;;;;7.63;100.00;100492.19;4989490;28;20057;-73
2021/12/29 03:33:39;;;;;;;16.27;5.35;;;;;;;7.60;100.00;100494.91;4989616;28;20049;-73
2021/12/29 03:36:07;;;;;;;19.00;4.95;;;;;;;7.62;100.00;100510.81;4990042;28;20050;-73
2021/12/29 03:38:38;;;;;;;13.05;4.55;;;;;;;7.59;100.00;100509.09;4992438;28;20056;-73
2021/12/29 03:41:07;;;;;;;14.43;4.82;;;;;;;7.61;100.00;100503.75;4989967;28;20061;-74
2021/12/29 03:43:37;;;;;;;13.95;4.30;;;;;;;7.57;100.00;100513.56;4988618;28;20112;-73
2021/12/29 03:46:06;;;;;;;11.65;4.80;;;;;;;7.56;100.00;100510.94;4989534;28;20090;-73
2021/12/29 03:48:36;;;;;;;20.27;4.40;;;;;;;7.59;100.00;100518.84;4993378;28;20061;-73
2021/12/29 03:51:05;;;;;;;10.52;4.00;;;;;;;7.58;100.00;100525.94;4990268;28;20056;-73
2021/12/29 03:53:35;;;;;;;18.15;4.50;;;;;;;7.58;100.00;100519.78;4989275;28;20370;-69
2021/12/29 03:56:05;;;;;;;17.10;4.35;;;;;;;7.56;100.00;100517.16;4987555;28;20141;-73
2021/12/29 03:58:34;;;;;;;15.88;4.80;;;;;;;7.55;100.00;100522.50;4990961;28;20129;-73
2021/12/29 04:01:06;;;;;;;15.95;4.65;;;;;;;7.56;100.00;100530.44;4991080;28;20140;-74
2021/12/29 04:03:35;;;;;;;12.40;4.80;;;;;;;7.53;100.00;100522.53;4990382;28;20237;-73
2021/12/29 04:06:04;;;;;;;20.40;4.82;;;;;;;7.54;100.00;100521.59;4988587;28;20486;-73
2021/12/29 04:08:32;;;;;;;11.25;4.18;;;;;;;7.54;100.00;100523.41;4991461;28;20061;-73
2021/12/29 04:11:00;;;;;;;16.25;4.88;;;;;;;7.54;100.00;100532.22;4987014;28;20077;-73
2021/12/29 04:13:28;;;;;;;14.77;4.82;;;;;;;7.51;100.00;100534.97;4990968;28;20054;-73
2021/12/29 04:15:56;;;;;;;15.48;4.85;;;;;;;7.49;100.00;100526.16;4988039;28;20072;-74
2021/12/29 04:18:28;;;;;;;16.20;5.03;;;;;;;7.47;100.00;100531.53;4987319;28;20141;-74
2021/12/29 04:20:58;;;;;;;18.05;5.18;;;;;;;7.47;100.00;100527.97;4989255;28;20054;-73
2021/12/29 04:23:28;;;;;;;15.82;5.25;;;;;;;7.50;100.00;100529.72;4988727;28;20050;-73
2021/12/29 04:25:58;;;;;;;15.98;5.65;;;;;;;7.46;100.00;100531.56;4990453;28;20151;-73
2021/12/29 04:28:26;;;;;;;14.38;4.88;;;;;;;7.46;100.00;100540.38;4988184;28;20088;-73
2021/12/29 04:30:56;;;;;;;15.77;5.03;;;;;;;7.48;100.00;100545.66;4987867;28;20051;-72
2021/12/29 04:33:27;;;;;;;19.23;4.75;;;;;;;7.51;100.00;100555.31;4991903;28;20586;-73
2021/12/29 04:35:54;;;;;;;23.20;6.45;;;;;;;7.51;100.00;100557.97;4992121;28;20490;-73
2021/12/29 04:38:24;;;;;;;16.25;5.65;;;;;;;7.47;100.00;100560.72;4986007;28;20513;-73
2021/12/29 04:40:54;;;;;;;18.58;5.05;;;;;;;7.45;100.00;100559.00;4988933;28;20073;-72
2021/12/29 04:43:24;;;;;;;16.67;5.30;;;;;;;7.46;100.00;100566.94;4990919;28;20086;-73
2021/12/29 04:45:53;;;;;;;19.08;4.95;;;;;;;7.46;100.00;100574.03;4988120;28;20072;-73
2021/12/29 04:48:23;;;;;;;20.02;5.78;;;;;;;7.46;100.00;100580.22;4991450;28;20479;-72
2021/12/29 04:51:03;;;;;;;14.77;4.55;;;;;;;7.47;100.00;100576.66;4988072;28;20550;-73
2021/12/29 04:53:32;;;;;;;18.35;4.93;;;;;;;7.48;100.00;100567.78;4991321;28;20145;-72
2021/12/29 04:56:01;;;;;;;14.88;5.20;;;;;;;7.46;100.00;100576.69;4990327;28;20081;-72
2021/12/29 04:58:28;;;;;;;21.70;6.15;;;;;;;7.47;100.00;100576.66;4988613;28;20599;-73
2021/12/29 05:00:57;;;;;;;15.15;5.47;;;;;;;7.47;100.00;100581.97;4989976;28;20054;-73
2021/12/29 05:03:25;;;;;;;16.98;5.93;;;;;;;7.44;100.00;100594.41;4991223;28;20125;-73
2021/12/29 05:08:24;;;;;;;14.52;5.43;;;;;;;7.46;100.00;100598.81;4988227;28;20057;-68
2021/12/29 05:08:45;;;;;;;11.73;5.07;;;;;;;7.45;100.00;100580.25;4987955;28;22035;-69
2021/12/29 05:11:15;;;;;;;17.40;6.05;;;;;;;7.45;100.00;100589.06;4989479;28;20053;-69
2021/12/29 05:13:45;;;;;;;19.45;5.95;;;;;;;7.46;100.00;100582.88;4990972;28;20050;-73
2021/12/29 05:16:13;;;;;;;17.00;6.30;;;;;;;7.45;100.00;100578.47;4987919;28;20113;-73
2021/12/29 05:18:41;;;;;;;15.10;5.85;;;;;;;7.44;100.00;100586.44;4992525;28;20054;-73
2021/12/29 05:21:10;;;;;;;14.95;6.22;;;;;;;7.43;100.00;100590.91;4987231;28;20097;-73
2021/12/29 05:23:38;;;;;;;19.25;6.18;;;;;;;7.39;100.00;100585.69;4988230;28;20163;-73
2021/12/29 05:26:06;;;;;;;12.77;6.57;;;;;;;7.42;100.00;100594.47;4988036;28;20524;-73
2021/12/29 05:28:35;;;;;;;14.35;5.72;;;;;;;7.44;100.00;100590.00;4989277;28;20081;-73
2021/12/29 05:31:05;;;;;;;13.18;6.32;;;;;;;7.39;100.00;100586.59;4991231;28;20084;-68
2021/12/29 05:33:33;;;;;;;13.77;6.47;;;;;;;7.38;100.00;100589.28;4986877;28;20050;-69
2021/12/29 05:36:02;;;;;;;14.07;6.18;;;;;;;7.37;100.00;100590.16;4989570;28;20062;-69
2021/12/29 05:38:31;;;;;;;18.33;6.70;;;;;;;7.40;100.00;100595.41;4986894;28;20058;-73
2021/12/29 05:41:00;;;;;;;18.20;6.93;;;;;;;7.41;100.00;100592.72;4992386;28;20057;-68
2021/12/29 05:43:29;;;;;;;15.68;6.63;;;;;;;7.38;100.00;100592.78;4991802;28;20086;-69
2021/12/29 05:45:56;;;;;;;16.70;6.70;;;;;;;7.36;100.00;100597.25;4993600;28;20081;-68
2021/12/29 05:48:27;;;;;;;15.75;5.95;;;;;;;7.37;100.00;100609.63;4991942;28;20080;-68
2021/12/29 05:50:55;;;;;;;15.80;5.93;;;;;;;7.36;100.00;100610.53;4991290;28;20049;-68
2021/12/29 05:53:24;;;;;;;15.13;6.53;;;;;;;7.33;100.00;100615.91;4990969;28;20053;-72
2021/12/29 05:55:53;;;;;;;15.20;6.65;;;;;;;7.34;100.00;100606.16;4994352;28;20050;-72
2021/12/29 05:58:25;;;;;;;16.20;6.55;;;;;;;7.33;100.00;100602.63;4993382;28;20065;-68
2021/12/29 06:00:53;;;;;;;14.50;6.20;;;;;;;7.35;100.00;100610.56;4992361;28;20054;-68
2021/12/29 06:03:21;;;;;;;12.05;6.15;;;;;;;7.31;100.00;100612.41;4994217;28;20114;-72
2021/12/29 06:05:51;;;;;;;16.38;6.95;;;;;;;7.37;100.00;100614.06;4993785;28;20069;-72
2021/12/29 06:08:21;;;;;;;16.00;6.63;;;;;;;7.30;100.00;100610.66;4995302;28;20550;-73
2021/12/29 06:10:50;;;;;;;15.85;6.70;;;;;;;7.27;100.00;100618.69;4991616;28;20058;-73
2021/12/29 06:13:19;;;;;;;13.68;5.43;;;;;;;7.28;100.00;100612.47;4991759;28;20054;-72
2021/12/29 06:15:47;;;;;;;15.02;6.72;;;;;;;7.26;100.00;100622.28;4993513;28;20050;-72
2021/12/29 06:18:15;;;;;;;15.20;6.10;;;;;;;7.21;100.00;100617.06;4991171;28;20066;-73
2021/12/29 06:20:46;;;;;;;17.15;6.32;;;;;;;7.23;100.00;100620.53;4990200;28;20065;-72
2021/12/29 06:23:16;;;;;;;15.48;5.80;;;;;;;7.22;100.00;100624.13;4992383;28;20058;-73
2021/12/29 06:25:47;;;;;;;15.85;6.82;;;;;;;7.20;100.00;100619.72;4990308;28;20419;-73
2021/12/29 06:28:15;;;;;;;15.35;6.10;;;;;;;7.20;100.00;100617.06;4993037;28;20129;-72
2021/12/29 06:30:46;;;;;;;18.95;6.05;;;;;;;7.20;100.00;100631.25;4988505;28;20069;-72
2021/12/29 06:33:14;;;;;;;14.20;5.90;;;;;;;7.18;100.00;100624.22;4993113;28;20072;-74
2021/12/29 06:35:51;;;;;;;16.85;6.45;;;;;;;7.16;100.00;100626.03;4993752;28;20057;-74
2021/12/29 06:38:22;;;;;;;12.27;5.90;;;;;;;7.15;100.00;100622.50;4988667;28;20750;-74
2021/12/29 06:40:50;;;;;;;19.08;6.15;;;;;;;7.14;100.00;100625.19;4991001;28;20108;-74
2021/12/29 06:43:18;;;;;;;16.20;5.43;;;;;;;7.11;100.00;100626.97;4990410;28;20287;-72
2021/12/29 06:45:47;;;;;;;15.20;5.50;;;;;;;7.11;100.00;100636.72;4992142;28;20081;-72
2021/12/29 06:48:15;;;;;;;16.02;5.20;;;;;;;7.10;100.00;100642.97;4988567;28;20112;-72
2021/12/29 06:50:43;;;;;;;12.48;5.25;;;;;;;7.07;100.00;100645.66;4989922;28;20042;-72
2021/12/29 06:53:12;;;;;;;12.27;5.22;;;;;;;7.08;100.00;100650.94;4990483;28;20086;-72
2021/12/29 06:55:42;;;;;;;11.98;5.90;;;;;;;7.06;100.00;100658.03;4991967;28;20062;-72
2021/12/29 06:58:11;;;;;;;9.85;4.93;;;;;;;7.04;100.00;100649.25;4990414;28;20120;-72
2021/12/29 07:00:42;;;;;;;17.70;5.85;;;;;;;7.03;100.00;100650.16;4992572;28;20050;-72
2021/12/29 07:03:11;;;;;;;13.93;5.75;;;;;;;7.00;100.00;100654.63;4988781;28;20061;-72
2021/12/29 07:05:40;;;;;;;12.32;5.10;;;;;;;6.98;100.00;100661.75;4989578;28;20062;-73
2021/12/29 07:08:10;;;;;;;16.65;6.22;;;;;;;6.98;100.00;100667.06;4995246;28;20054;-74
2021/12/29 07:10:40;;;;;;;13.70;5.68;;;;;;;6.99;100.00;100669.69;4991384;28;20054;-73
2021/12/29 07:13:08;;;;;;;13.55;6.10;;;;;;;7.01;100.00;100677.63;4988467;28;20081;-69
2021/12/29 07:15:36;;;;;;;14.93;6.72;;;;;;;6.98;100.00;100683.88;4976745;28;20054;-69
2021/12/29 07:18:06;;;;;;;15.60;7.00;;;;;;;7.00;100.00;100695.31;4967764;28;20268;-70
2021/12/29 07:20:35;;;;;;;18.67;8.18;;;;;;;7.00;100.00;100690.03;4992412;28;20069;-69
2021/12/29 07:23:04;;;;;;;16.52;6.80;;;;;;;6.99;100.00;100693.56;4992688;28;20058;-69
2021/12/29 07:25:32;;;;;;;15.52;7.18;;;;;;;6.98;100.00;100690.94;4975650;28;20058;-69
2021/12/29 07:28:00;;;;;;;16.02;7.45;;;;;;;6.97;100.00;100679.47;4991396;28;20061;-69
2021/12/29 07:30:31;;;;;;;17.23;7.35;;;;;;;6.96;100.00;100684.78;4989821;28;20152;-69
2021/12/29 07:32:59;;;;;;;15.55;7.82;;;;;;;6.96;100.00;100690.97;4988901;28;20269;-69
2021/12/29 07:35:28;;;;;;;17.48;8.00;;;;;;;6.96;100.00;100695.41;4989825;28;20145;-69
2021/12/29 07:37:59;;;;;;;13.70;7.30;;;;;;;6.94;100.00;100689.25;4991647;28;20560;-69
2021/12/29 07:40:28;;;;;;;13.77;7.22;;;;;;;6.90;100.00;100689.31;4993288;28;20462;-69
2021/12/29 07:42:57;;;;;;;16.00;7.38;;;;;;;6.91;100.00;100680.47;4975504;28;20064;-70
2021/12/29 07:45:27;;;;;;;24.75;9.40;;;;;;;6.90;100.00;100673.41;4992243;28;20657;-69
2021/12/29 07:47:55;;;;;;;15.85;7.68;;;;;;;6.88;100.00;100669.91;4986612;28;20569;-74
2021/12/29 07:50:23;;;;;;;13.55;8.45;;;;;;;6.87;100.00;100670.81;4990982;28;20586;-74
2021/12/29 07:53:00;;;;;;;14.60;8.60;;;;;;;6.89;100.00;100673.44;4988378;28;20077;-74
2021/12/29 07:55:28;;;;;;;14.88;8.38;;;;;;;6.91;100.00;100669.84;4988978;28;20158;-73
2021/12/29 07:57:56;;;;;;;13.20;7.82;;;;;;;6.90;100.00;100676.06;4987626;28;20151;-73
2021/12/29 08:00:24;;;;;;;16.67;8.15;;;;;;;6.92;100.00;100684.00;4988339;28;20157;-72
2021/12/29 08:02:53;;;;;;;14.40;8.20;;;;;;;6.93;100.00;100680.44;4988726;28;20062;-73
2021/12/29 08:05:22;;;;;;;15.68;8.02;;;;;;;6.95;100.00;100675.97;4988914;28;20054;-73
2021/12/29 08:07:50;;;;;;;17.58;7.57;;;;;;;6.94;100.00;100676.88;4990953;28;20077;-72
2021/12/29 08:10:22;;;;;;;13.82;7.15;;;;;;;6.95;100.00;100678.63;4988774;28;20161;-72
2021/12/29 08:12:50;;;;;;;16.40;7.45;;;;;;;6.92;100.00;100679.53;4989705;28;20052;-72
2021/12/29 08:15:18;;;;;;;18.45;8.30;;;;;;;6.95;100.00;100683.94;4989297;28;20054;-73
2021/12/29 08:17:51;;;;;;;15.77;7.93;;;;;;;6.95;100.00;100694.53;4990002;28;20065;-73
2021/12/29 08:20:21;;;;;;;18.45;7.70;;;;;;;6.96;100.00;100687.44;4991548;28;20050;-73
2021/12/29 08:22:49;;;;;;;21.95;7.35;;;;;;;6.94;100.00;100676.88;4990116;28;20137;-73
2021/12/29 08:25:17;;;;;;;18.75;8.27;;;;;;;6.94;100.00;100668.03;4987270;28;20148;-73
2021/12/29 08:27:46;;;;;;;16.73;7.88;;;;;;;6.95;100.00;100672.44;4991720;28;20148;-73
2021/12/29 08:30:15;;;;;;;16.95;7.95;;;;;;;6.92;100.00;100670.72;4990067;28;20060;-73
2021/12/29 08:32:43;;;;;;;16.77;7.90;;;;;;;6.89;100.00;100678.72;4989890;28;20046;-73
2021/12/29 08:35:12;;;;;;;15.65;7.78;;;;;;;6.92;100.00;100684.00;4990394;28;20129;-73
2021/12/29 08:37:40;;;;;;;17.65;8.25;;;;;;;6.91;100.00;100690.19;4988107;28;20088;-74
2021/12/29 08:40:10;;;;;;;17.10;7.32;;;;;;;6.88;100.00;100700.88;4988971;28;20589;-74
2021/12/29 08:42:41;;;;;;;14.73;7.22;;;;;;;6.89;100.00;100697.31;4990793;28;20141;-69
2021/12/29 08:45:21;;;;;;;15.57;8.77;;;;;;;6.92;100.00;100692.81;4971459;28;20589;-70
2021/12/29 08:47:52;;;;;;;20.95;9.95;;;;;;;6.96;100.00;100696.28;4989838;28;20053;-70
2021/12/29 08:50:25;;;;;;;18.13;8.43;;;;;;;6.91;100.00;100701.69;4989619;28;20549;-70
2021/12/29 08:52:58;;;;;;;18.73;9.25;;;;;;;6.94;100.00;100681.31;4986962;28;20241;-71
2021/12/29 08:55:36;;;;;;;23.25;9.38;;;;;;;6.96;100.00;100683.00;4987166;28;20050;-70
2021/12/29 08:58:08;;;;;;;15.27;8.55;;;;;;;6.95;100.00;100688.34;4988386;28;20439;-69
2021/12/29 09:00:42;;;;;;;25.02;9.38;;;;;;;6.94;100.00;100676.00;4991209;28;20084;-69
2021/12/29 09:03:18;;;;;;;17.35;8.35;;;;;;;6.93;100.00;100675.13;4990361;28;20069;-69
2021/12/29 09:06:04;;;;;;;14.52;8.52;;;;;;;6.91;100.00;100666.31;4989620;28;20051;-69
2021/12/29 09:08:35;;;;;;;25.57;8.37;;;;;;;6.91;100.00;100676.91;4974314;28;20162;-69
2021/12/29 09:11:09;;;;;;;16.55;8.52;;;;;;;6.91;100.00;100675.16;4989082;28;20142;-70
2021/12/29 09:13:43;;;;;;;34.95;17.95;;;;;;;6.88;100.00;100682.31;4989231;28;20513;-69
2021/12/29 09:16:14;;;;;;;15.55;8.40;;;;;;;6.91;100.00;100690.19;4997975;28;20082;-71
2021/12/29 09:18:43;;;;;;;19.63;7.40;;;;;;;6.90;100.00;100680.50;4977865;28;20087;-69
2021/12/29 09:21:18;;;;;;;12.45;7.47;;;;;;;6.94;100.00;100674.22;4980626;28;20101;-70
2021/12/29 09:26:39;;;;;;;18.13;8.55;;;;;;;6.99;100.00;100669.69;4990003;28;20126;-69
2021/12/29 09:29:17;;;;;;;14.88;8.55;;;;;;;7.04;100.00;100675.78;4993508;28;20449;-71
2021/12/29 09:31:48;;;;;;;15.45;8.15;;;;;;;7.09;100.00;100687.16;4993063;28;20054;-69
2021/12/29 09:34:22;;;;;;;15.05;8.00;;;;;;;7.10;100.00;100680.97;4975312;28;20082;-70
2021/12/29 09:37:00;;;;;;;15.68;7.28;;;;;;;7.11;100.00;100672.09;4994799;28;20057;-70
2021/12/29 09:39:44;;;;;;;17.65;8.23;;;;;;;7.14;100.00;100672.97;4978567;28;20198;-69
2021/12/29 09:42:26;;;;;;;14.50;7.30;;;;;;;7.15;100.00;100674.69;4991813;28;20054;-70
2021/12/29 09:45:09;;;;;;;18.30;8.02;;;;;;;7.09;100.00;100676.56;4992429;28;20125;-70
2021/12/29 09:47:51;;;;;;;14.45;6.93;;;;;;;7.09;100.00;100670.38;4974193;28;20214;-69
2021/12/29 09:50:29;;;;;;;;;;;;;;;7.11;100.00;100671.22;4990078;28;20054;-70
2021/12/29 09:53:23;;;;;;;15.27;7.32;;;;;;;7.08;100.00;100658.91;4992508;28;19921;-69
2021/12/29 09:56:27;;;;;;;16.02;7.40;;;;;;;7.13;100.00;100663.22;4989232;28;20101;-69
2021/12/29 09:58:59;;;;;;;16.17;7.97;;;;;;;7.10;100.00;100650.91;4992801;28;20060;-69
2021/12/29 10:04:39;;;;;;;14.20;6.70;;;;;;;7.15;100.00;100653.47;4969993;28;20125;-68
2021/12/29 10:10:28;;;;;;;11.25;6.45;;;;;;;7.20;100.00;100639.22;4994182;28;20483;-69
2021/12/29 10:13:11;;;;;;;19.25;8.05;;;;;;;7.21;100.00;100629.47;4990181;28;20049;-69
2021/12/29 10:15:44;;;;;;;17.00;7.90;;;;;;;7.21;100.00;100626.81;4992670;28;20054;-74
2021/12/29 10:18:15;;;;;;;14.23;7.43;;;;;;;7.21;100.00;100624.16;4992469;28;20060;-74
2021/12/29 10:20:50;;;;;;;15.48;8.45;;;;;;;7.24;100.00;100624.09;4989625;28;20058;-75
2021/12/29 10:23:21;;;;;;;15.55;7.35;;;;;;;7.25;100.00;100624.06;4992889;28;20077;-75
2021/12/29 10:25:50;;;;;;;18.15;7.45;;;;;;;7.27;100.00;100621.34;4987959;28;20487;-76
2021/12/29 10:28:24;;;;;;;15.80;7.63;;;;;;;7.28;100.00;100629.28;4991859;28;20060;-76
2021/12/29 10:30:57;;;;;;;17.75;7.68;;;;;;;7.31;100.00;100630.13;4990157;28;20126;-76
2021/12/29 10:33:26;;;;;;;14.35;7.97;;;;;;;7.33;100.00;100617.69;4989782;28;20314;-76
2021/12/29 10:35:55;;;;;;;18.27;8.15;;;;;;;7.40;100.00;100633.44;4992556;28;20533;-76
2021/12/29 10:38:25;;;;;;;18.70;8.23;;;;;;;7.42;100.00;100626.34;4989843;28;20153;-76
2021/12/29 10:41:03;;;;;;;21.80;9.52;;;;;;;7.42;100.00;100630.75;4990309;28;20558;-76
2021/12/29 10:43:31;;;;;;;15.77;8.02;;;;;;;7.42;100.00;100634.31;4990605;28;20062;-77
2021/12/29 10:45:59;;;;;;;18.15;9.20;;;;;;;7.42;100.00;100639.63;4994659;28;20087;-77
2021/12/29 10:48:28;;;;;;;24.27;9.02;;;;;;;7.43;100.00;100636.03;4990225;28;20054;-76
2021/12/29 10:51:02;;;;;;;16.27;8.15;;;;;;;7.48;100.00;100633.28;4993472;28;20082;-76
2021/12/29 10:53:31;;;;;;;;;;;;;;;7.44;100.00;100632.47;4991311;28;20556;-76
2021/12/29 10:55:59;;;;;;;16.23;7.97;;;;;;;7.39;100.00;100621.09;4991214;28;19989;-76
2021/12/29 10:58:32;;;;;;;15.70;8.52;;;;;;;7.39;100.00;100628.16;4988517;28;20046;-75
2021/12/29 11:01:12;;;;;;;17.08;7.93;;;;;;;7.40;100.00;100624.59;4992082;28;20524;-70
2021/12/29 11:03:58;;;;;;;20.52;8.68;;;;;;;7.41;100.00;100607.78;4976152;28;20057;-70
2021/12/29 11:07:31;;;;;;;15.98;7.75;;;;;;;7.47;100.00;100589.03;4990720;28;20093;-69
2021/12/29 11:10:24;;;;;;;19.73;9.73;;;;;;;7.50;100.00;100580.16;4975155;28;20753;-70
2021/12/29 11:13:07;;;;;;;18.77;8.70;;;;;;;7.51;100.00;100585.44;4976463;28;20277;-71
2021/12/29 11:15:59;;;;;;;29.58;15.77;;;;;;;7.51;100.00;100582.78;4987580;28;20071;-71
2021/12/29 11:19:08;;;;;;;24.75;10.43;;;;;;;7.52;100.00;100573.88;4990043;28;20585;-69
2021/12/29 11:21:56;;;;;;;22.05;11.90;;;;;;;7.53;100.00;100578.28;4989103;28;20081;-69
2021/12/29 11:24:56;;;;;;;22.95;11.35;;;;;;;7.59;100.00;100577.25;4974626;28;20050;-69
2021/12/29 11:30:56;;;;;;;22.27;11.00;;;;;;;7.53;100.00;100569.47;4979733;28;20540;-71
2021/12/29 11:34:12;;;;;;;22.63;10.90;;;;;;;7.53;100.00;100561.50;4990619;28;20070;-69
2021/12/29 11:37:17;;;;;;;24.63;10.20;;;;;;;7.55;100.00;100564.97;4990131;28;20093;-78
2021/12/29 11:39:47;;;;;;;20.52;9.38;;;;;;;7.54;100.00;100561.44;4990565;28;20081;-77
2021/12/29 11:42:15;;;;;;;16.23;9.07;;;;;;;7.54;100.00;100566.75;4990502;28;20177;-76
2021/12/29 11:44:42;;;;;;;18.52;8.73;;;;;;;7.55;100.00;100568.50;4992538;28;20050;-77
2021/12/29 11:47:12;;;;;;;19.98;9.35;;;;;;;7.53;100.00;100561.50;4990095;28;20128;-75
2021/12/29 11:49:40;;;;;;;16.77;8.10;;;;;;;7.54;100.00;100556.13;4988588;28;20141;-76
2021/12/29 11:52:20;;;;;;;17.02;8.13;;;;;;;7.56;100.00;100553.44;4986329;28;20266;-76
2021/12/29 11:55:02;;;;;;;21.45;9.45;;;;;;;7.59;100.00;100561.34;4990405;28;20050;-76
2021/12/29 11:57:32;;;;;;;17.15;7.82;;;;;;;7.59;100.00;100564.00;4989906;28;20122;-76